Time;durP1;ratioP1;P1;durP2;ratioP2;P2;SDS_P1;SDS_P2;PMS_P1;PMS_P2;Temp;Humidity;BMP_temperature;BMP_pressure;BME280_temperature;BME280_humidity;BME280_pressure;Samples;Min_cycle;Max_cycle;Signal;HPM_P1;HPM_P2
2021/12/15 00:01:35;;;;;;;49.63;23.58;;;;;;;;;;4956279;28;20055;-67
2021/12/15 00:04:02;;;;;;;47.67;22.52;;;;;;;;;;4955816;28;20053;-66
2021/12/15 00:06:29;;;;;;;48.70;21.92;;;;;;;;;;4954546;28;20114;-67
2021/12/15 00:08:58;;;;;;;50.08;21.85;;;;;;;;;;4955845;28;20051;-67
2021/12/15 00:11:35;;;;;;;53.22;22.40;;;;;;;;;;4955964;28;20071;-67
2021/12/15 00:14:16;;;;;;;52.60;22.48;;;;;;;;;;4955750;28;20047;-67
2021/12/15 00:16:44;;;;;;;47.45;23.02;;;;;;;;;;4955466;28;20059;-67
2021/12/15 00:19:11;;;;;;;51.40;23.08;;;;;;;;;;4955764;28;20059;-67
2021/12/15 00:21:39;;;;;;;50.22;23.02;;;;;;;;;;4955831;28;20086;-68
2021/12/15 00:24:06;;;;;;;52.75;23.45;;;;;;;;;;4955497;28;20048;-68
2021/12/15 00:26:33;;;;;;;53.05;23.65;;;;;;;;;;4955700;28;20511;-67
2021/12/15 00:29:01;;;;;;;57.15;22.85;;;;;;;;;;4955520;28;20055;-67
2021/12/15 00:31:30;;;;;;;58.67;25.38;;;;;;;;;;4956177;28;20051;-67
2021/12/15 00:33:57;;;;;;;63.35;25.23;;;;;;;;;;4955512;28;20055;-67
2021/12/15 00:36:23;;;;;;;55.60;25.08;;;;;;;;;;4955487;28;20062;-68
2021/12/15 00:38:50;;;;;;;54.72;24.40;;;;;;;;;;4955215;28;20047;-67
2021/12/15 00:41:18;;;;;;;56.47;25.70;;;;;;;;;;4955353;28;20471;-67
2021/12/15 00:43:45;;;;;;;63.47;26.35;;;;;;;;;;4955319;28;20047;-67
2021/12/15 00:46:11;;;;;;;54.08;24.33;;;;;;;;;;4955299;28;20059;-67
2021/12/15 00:48:38;;;;;;;54.50;24.13;;;;;;;;;;4955142;28;20114;-67
2021/12/15 00:51:05;;;;;;;51.42;24.00;;;;;;;;;;4955172;28;20102;-68
2021/12/15 00:53:32;;;;;;;46.72;23.42;;;;;;;;;;4955085;28;20106;-68
2021/12/15 00:55:58;;;;;;;52.25;24.15;;;;;;;;;;4954939;28;20055;-67
2021/12/15 00:58:26;;;;;;;57.55;24.80;;;;;;;;;;4954940;28;20110;-66
2021/12/15 01:00:57;;;;;;;55.42;24.42;;;;;;;;;;4954078;29;20106;-67
2021/12/15 01:03:24;;;;;;;54.28;23.63;;;;;;;;;;4954731;28;20047;-66
2021/12/15 01:05:58;;;;;;;56.90;24.23;;;;;;;;;;4954943;28;20050;-67
2021/12/15 01:08:28;;;;;;;49.58;21.75;;;;;;;;;;4954797;28;20047;-67
2021/12/15 01:21:50;;;;;;;53.40;23.63;;;;;;;;;;4954974;29;20091;-67
2021/12/15 01:24:17;;;;;;;52.95;23.58;;;;;;;;;;4954600;28;20055;-67
2021/12/15 01:26:44;;;;;;;55.35;23.85;;;;;;;;;;4966990;28;20051;-68
2021/12/15 01:29:10;;;;;;;54.30;23.10;;;;;;;;;;4979215;28;20079;-68
2021/12/15 01:31:37;;;;;;;62.90;24.38;;;;;;;;;;4979945;29;20027;-69
2021/12/15 01:34:04;;;;;;;50.22;23.65;;;;;;;;;;4978912;29;20035;-69
2021/12/15 01:36:30;;;;;;;51.72;23.13;;;;;;;;;;4956237;28;20055;-67
2021/12/15 01:38:57;;;;;;;47.33;22.25;;;;;;;;;;4953994;28;20055;-67
2021/12/15 01:41:24;;;;;;;50.13;22.80;;;;;;;;;;4954249;28;20118;-67
2021/12/15 01:46:55;;;;;;;48.70;21.60;;;;;;;;;;4957103;28;20055;-68
2021/12/15 01:49:39;;;;;;;48.05;22.27;;;;;;;;;;4957255;28;20057;-68
2021/12/15 01:52:11;;;;;;;50.90;22.23;;;;;;;;;;4957743;28;20051;-68
2021/12/15 01:54:38;;;;;;;50.28;22.95;;;;;;;;;;4956980;28;20047;-68
2021/12/15 01:57:06;;;;;;;49.40;23.27;;;;;;;;;;4960808;28;20074;-68
2021/12/15 01:59:33;;;;;;;49.00;22.27;;;;;;;;;;4958633;29;20051;-68
2021/12/15 02:02:00;;;;;;;51.50;23.33;;;;;;;;;;4958752;28;20051;-68
2021/12/15 02:04:27;;;;;;;49.97;23.45;;;;;;;;;;4958799;28;20086;-68
2021/12/15 02:06:54;;;;;;;51.78;22.05;;;;;;;;;;4957895;28;20118;-68
2021/12/15 02:09:49;;;;;;;54.20;23.27;;;;;;;;;;4957730;28;20138;-68
2021/12/15 02:12:15;;;;;;;53.63;22.52;;;;;;;;;;4957086;29;20051;-68
2021/12/15 02:14:41;;;;;;;53.72;23.25;;;;;;;;;;4956415;28;20051;-68
2021/12/15 02:17:09;;;;;;;53.55;22.77;;;;;;;;;;4955297;28;20055;-67
2021/12/15 02:19:36;;;;;;;55.65;21.83;;;;;;;;;;4953835;29;20047;-67
2021/12/15 02:22:03;;;;;;;54.92;23.20;;;;;;;;;;4955626;29;20102;-67
2021/12/15 02:24:32;;;;;;;53.45;23.20;;;;;;;;;;4953799;28;20105;-66
2021/12/15 02:27:00;;;;;;;50.90;23.40;;;;;;;;;;4953172;28;20118;-67
2021/12/15 02:29:32;;;;;;;49.65;22.85;;;;;;;;;;4953106;28;20055;-67
2021/12/15 02:32:32;;;;;;;54.15;21.65;;;;;;;;;;4953677;28;20199;-68
2021/12/15 02:37:30;;;;;;;58.20;24.58;;;;;;;;;;4978765;28;20106;-69
2021/12/15 02:40:06;;;;;;;41.53;20.60;;;;;;;;;;4979137;28;20067;-70
2021/12/15 02:42:37;;;;;;;47.22;22.88;;;;;;;;;;4978337;28;20035;-69
2021/12/15 02:45:06;;;;;;;50.60;22.38;;;;;;;;;;4978777;28;20082;-69
2021/12/15 02:47:32;;;;;;;48.15;24.30;;;;;;;;;;4978752;28;20071;-69
2021/12/15 02:50:01;;;;;;;49.95;23.40;;;;;;;;;;4978349;28;20078;-69
2021/12/15 02:52:27;;;;;;;45.75;21.60;;;;;;;;;;4978150;28;20059;-69
2021/12/15 02:54:54;;;;;;;48.15;22.98;;;;;;;;;;4978948;28;20041;-69
2021/12/15 02:57:21;;;;;;;47.33;23.33;;;;;;;;;;4978234;28;20039;-69
2021/12/15 03:05:02;;;;;;;46.20;21.40;;;;;;;;;;4953072;28;20078;-67
2021/12/15 03:08:01;;;;;;;52.08;23.55;;;;;;;;;;4937787;29;20078;-67
2021/12/15 03:15:58;;;;;;;44.17;20.67;;;;;;;;;;4953347;28;20055;-67
2021/12/15 03:18:27;;;;;;;45.83;23.65;;;;;;;;;;4952985;28;20055;-67
2021/12/15 03:21:14;;;;;;;44.40;21.25;;;;;;;;;;4953333;28;20059;-67
2021/12/15 03:23:51;;;;;;;46.95;21.88;;;;;;;;;;4952203;29;20121;-67
2021/12/15 03:26:24;;;;;;;49.75;21.38;;;;;;;;;;4952948;28;20047;-67
2021/12/15 03:37:23;;;;;;;42.33;21.70;;;;;;;;;;4972730;28;20079;-70
2021/12/15 03:39:52;;;;;;;44.72;21.33;;;;;;;;;;4979475;28;20027;-69
2021/12/15 03:42:25;;;;;;;47.60;21.67;;;;;;;;;;4981544;28;20043;-69
2021/12/15 03:44:52;;;;;;;42.70;21.08;;;;;;;;;;4981227;28;20035;-69
2021/12/15 03:47:25;;;;;;;41.90;20.42;;;;;;;;;;4980946;28;20035;-68
2021/12/15 03:49:54;;;;;;;43.33;20.88;;;;;;;;;;4981356;28;20079;-68
2021/12/15 03:52:21;;;;;;;42.10;21.15;;;;;;;;;;4960004;29;20059;-67
2021/12/15 03:54:48;;;;;;;39.45;20.05;;;;;;;;;;4955830;28;20043;-66
2021/12/15 03:57:15;;;;;;;44.72;21.90;;;;;;;;;;4954787;29;20051;-67
2021/12/15 03:59:43;;;;;;;44.97;20.83;;;;;;;;;;4956139;28;20051;-66
2021/12/15 04:02:12;;;;;;;45.15;20.85;;;;;;;;;;4956083;28;20078;-66
2021/12/15 04:04:39;;;;;;;45.28;21.23;;;;;;;;;;4955792;28;20047;-66
2021/12/15 04:07:07;;;;;;;49.25;23.17;;;;;;;;;;4973180;28;20035;-68
2021/12/15 04:09:33;;;;;;;46.25;21.35;;;;;;;;;;4981280;28;20035;-69
2021/12/15 04:12:00;;;;;;;43.17;19.90;;;;;;;;;;4981208;28;20031;-68
2021/12/15 04:14:34;;;;;;;46.15;21.92;;;;;;;;;;4980968;28;20039;-68
2021/12/15 04:17:04;;;;;;;43.78;22.25;;;;;;;;;;4980696;28;20043;-68
2021/12/15 04:19:33;;;;;;;44.25;21.27;;;;;;;;;;4980969;28;20058;-68
2021/12/15 04:22:00;;;;;;;39.33;19.50;;;;;;;;;;4966501;28;20118;-67
2021/12/15 04:24:27;;;;;;;40.33;20.27;;;;;;;;;;4955416;28;20462;-66
2021/12/15 04:26:58;;;;;;;40.33;21.63;;;;;;;;;;4955614;28;20134;-67
2021/12/15 04:29:27;;;;;;;43.08;21.58;;;;;;;;;;4955656;28;20106;-66
2021/12/15 04:32:16;;;;;;;40.63;20.65;;;;;;;;;;4955700;28;20195;-66
2021/12/15 04:34:43;;;;;;;42.58;21.13;;;;;;;;;;4955103;29;20043;-67
2021/12/15 04:37:09;;;;;;;39.47;20.33;;;;;;;;;;4955575;28;20076;-66
2021/12/15 04:39:36;;;;;;;37.33;20.23;;;;;;;;;;4955822;29;20051;-67
2021/12/15 04:42:05;;;;;;;41.15;20.52;;;;;;;;;;4955190;29;20062;-66
2021/12/15 04:44:32;;;;;;;39.47;19.52;;;;;;;;;;4955359;28;20047;-66
2021/12/15 04:47:08;;;;;;;39.20;19.63;;;;;;;;;;4955665;28;20106;-66
2021/12/15 04:49:50;;;;;;;37.78;20.73;;;;;;;;;;4955220;28;20491;-66
2021/12/15 04:52:23;;;;;;;37.85;19.88;;;;;;;;;;4954174;28;20051;-67
2021/12/15 04:54:49;;;;;;;;;;;;;;;;;;4955279;28;20048;-66
2021/12/15 04:57:17;;;;;;;37.38;20.20;;;;;;;;;;4954964;28;19989;-66
2021/12/15 04:59:44;;;;;;;39.97;21.02;;;;;;;;;;4953976;29;20099;-66
2021/12/15 05:02:13;;;;;;;34.88;19.50;;;;;;;;;;4954866;28;20109;-67
2021/12/15 05:04:41;;;;;;;34.00;17.27;;;;;;;;;;4954927;29;20066;-66
2021/12/15 05:07:08;;;;;;;37.13;19.25;;;;;;;;;;4967170;28;20030;-67
2021/12/15 05:09:36;;;;;;;39.22;18.88;;;;;;;;;;4979784;28;20050;-69
2021/12/15 05:12:03;;;;;;;34.67;18.60;;;;;;;;;;4979773;28;20079;-69
2021/12/15 05:14:30;;;;;;;36.42;19.35;;;;;;;;;;4979150;28;20031;-67
2021/12/15 05:16:57;;;;;;;37.30;19.75;;;;;;;;;;4979629;28;20055;-68
2021/12/15 05:19:25;;;;;;;39.40;19.77;;;;;;;;;;4979694;29;20035;-69
2021/12/15 05:21:53;;;;;;;42.35;19.88;;;;;;;;;;4979247;28;20047;-68
2021/12/15 05:27:06;;;;;;;30.75;17.42;;;;;;;;;;4979423;28;20078;-69
2021/12/15 05:29:33;;;;;;;35.50;18.83;;;;;;;;;;4979813;28;20059;-68
2021/12/15 05:32:00;;;;;;;32.33;17.48;;;;;;;;;;4979704;28;20031;-68
2021/12/15 05:34:26;;;;;;;38.15;18.70;;;;;;;;;;4979669;28;20051;-68
2021/12/15 05:36:54;;;;;;;34.40;17.35;;;;;;;;;;4970415;28;20059;-66
2021/12/15 05:39:21;;;;;;;34.20;18.58;;;;;;;;;;4954263;28;20082;-66
2021/12/15 05:41:49;;;;;;;36.92;18.58;;;;;;;;;;4954655;28;20051;-67
2021/12/15 05:44:15;;;;;;;33.08;18.65;;;;;;;;;;4953942;29;20499;-67
2021/12/15 05:46:42;;;;;;;32.22;17.67;;;;;;;;;;4954146;28;20431;-67
2021/12/15 05:49:09;;;;;;;36.90;19.45;;;;;;;;;;4953936;28;20474;-67
2021/12/15 05:51:37;;;;;;;37.83;19.10;;;;;;;;;;4958097;28;20035;-69
2021/12/15 05:54:07;;;;;;;36.50;18.33;;;;;;;;;;4978955;28;20039;-69
2021/12/15 05:56:39;;;;;;;35.60;18.77;;;;;;;;;;4979179;28;20095;-69
2021/12/15 05:59:05;;;;;;;35.83;17.75;;;;;;;;;;4978470;28;20051;-70
2021/12/15 06:01:32;;;;;;;38.95;19.90;;;;;;;;;;4978357;28;20257;-69
2021/12/15 06:04:00;;;;;;;36.70;17.77;;;;;;;;;;4977476;28;20094;-70
2021/12/15 06:06:28;;;;;;;33.08;17.15;;;;;;;;;;4975655;28;20047;-69
2021/12/15 06:08:55;;;;;;;36.65;17.48;;;;;;;;;;4966862;28;20055;-69
2021/12/15 06:11:22;;;;;;;34.40;17.35;;;;;;;;;;4955573;28;20055;-68
2021/12/15 06:13:50;;;;;;;30.52;16.65;;;;;;;;;;4949294;28;20095;-67
2021/12/15 06:16:18;;;;;;;33.45;17.38;;;;;;;;;;4943889;28;20520;-67
2021/12/15 06:18:46;;;;;;;32.17;16.60;;;;;;;;;;4945706;29;20051;-68
2021/12/15 06:21:13;;;;;;;32.60;16.38;;;;;;;;;;4942563;28;20051;-68
2021/12/15 06:23:39;;;;;;;28.35;15.50;;;;;;;;;;4953140;28;20074;-66
2021/12/15 06:26:07;;;;;;;30.52;15.48;;;;;;;;;;4952431;29;20051;-66
2021/12/15 06:28:35;;;;;;;27.80;13.90;;;;;;;;;;4953650;28;20055;-66
2021/12/15 06:31:05;;;;;;;28.55;14.70;;;;;;;;;;4952440;29;20051;-67
2021/12/15 06:33:34;;;;;;;31.88;15.68;;;;;;;;;;4953520;28;20047;-66
2021/12/15 06:36:02;;;;;;;28.35;14.48;;;;;;;;;;4953303;29;20102;-67
2021/12/15 06:38:31;;;;;;;27.58;14.50;;;;;;;;;;4952656;28;20051;-66
2021/12/15 06:40:58;;;;;;;29.92;15.80;;;;;;;;;;4953315;28;20491;-67
2021/12/15 06:43:25;;;;;;;30.08;16.65;;;;;;;;;;4950607;28;20134;-66
2021/12/15 06:59:23;;;;;;;31.35;15.55;;;;;;;;;;4947339;28;20136;-67
2021/12/15 07:01:51;;;;;;;34.20;15.75;;;;;;;;;;4949554;29;20056;-67
2021/12/15 07:04:19;;;;;;;32.85;15.70;;;;;;;;;;4950377;28;20055;-67
2021/12/15 07:06:47;;;;;;;33.35;16.50;;;;;;;;;;4950476;28;20051;-67
2021/12/15 07:09:13;;;;;;;31.95;17.70;;;;;;;;;;4950044;28;20051;-67
2021/12/15 07:11:41;;;;;;;30.38;16.58;;;;;;;;;;4948450;29;21179;-67
2021/12/15 07:14:08;;;;;;;30.92;15.75;;;;;;;;;;4949787;28;20098;-67
2021/12/15 07:16:39;;;;;;;27.50;15.68;;;;;;;;;;4952898;28;20079;-66
2021/12/15 07:19:10;;;;;;;28.52;15.10;;;;;;;;;;4953550;28;20162;-65
2021/12/15 07:21:40;;;;;;;30.08;16.15;;;;;;;;;;4953428;28;20059;-64
2021/12/15 07:24:07;;;;;;;29.95;15.18;;;;;;;;;;4953139;28;20066;-67
2021/12/15 07:26:34;;;;;;;30.17;15.98;;;;;;;;;;4953404;29;20565;-66
2021/12/15 07:29:01;;;;;;;33.15;16.45;;;;;;;;;;4952556;28;20106;-66
2021/12/15 07:31:28;;;;;;;32.13;17.42;;;;;;;;;;4953352;28;20055;-66
2021/12/15 07:33:55;;;;;;;32.08;16.10;;;;;;;;;;4952929;28;20109;-65
2021/12/15 07:36:21;;;;;;;29.10;15.45;;;;;;;;;;4952986;28;20047;-66
2021/12/15 07:38:55;;;;;;;31.50;14.77;;;;;;;;;;4952828;28;20194;-65
2021/12/15 07:41:27;;;;;;;27.10;13.90;;;;;;;;;;4949454;28;20558;-65
2021/12/15 07:43:56;;;;;;;29.38;14.80;;;;;;;;;;4953374;28;20440;-66
2021/12/15 07:46:45;;;;;;;24.67;13.63;;;;;;;;;;4952416;28;20566;-66
2021/12/15 07:49:12;;;;;;;28.33;14.90;;;;;;;;;;4953349;28;20463;-65
2021/12/15 07:51:42;;;;;;;29.42;15.20;;;;;;;;;;4956227;28;20396;-66
2021/12/15 07:54:10;;;;;;;26.70;14.40;;;;;;;;;;4954805;28;20051;-65
2021/12/15 07:56:36;;;;;;;25.65;14.68;;;;;;;;;;4955167;28;20552;-65
2021/12/15 07:59:03;;;;;;;24.17;14.27;;;;;;;;;;4943669;28;20067;-66
2021/12/15 08:01:30;;;;;;;24.80;14.48;;;;;;;;;;4955164;29;20118;-67
2021/12/15 08:03:57;;;;;;;28.50;16.52;;;;;;;;;;4954359;28;20074;-65
2021/12/15 08:06:25;;;;;;;29.58;15.48;;;;;;;;;;4955089;29;20051;-65
2021/12/15 08:08:52;;;;;;;34.95;18.20;;;;;;;;;;4954286;28;20047;-67
2021/12/15 08:11:19;;;;;;;34.45;17.45;;;;;;;;;;4954795;28;20059;-66
2021/12/15 08:13:46;;;;;;;30.63;16.05;;;;;;;;;;4955098;28;20059;-65
2021/12/15 08:16:14;;;;;;;33.53;17.13;;;;;;;;;;4954391;28;20071;-65
2021/12/15 08:18:41;;;;;;;30.05;15.57;;;;;;;;;;4954219;28;20502;-66
2021/12/15 08:21:09;;;;;;;35.72;17.35;;;;;;;;;;4954419;28;20047;-66
2021/12/15 08:23:35;;;;;;;28.95;14.60;;;;;;;;;;4954655;28;20051;-66
2021/12/15 08:26:03;;;;;;;27.83;14.88;;;;;;;;;;4954303;28;20566;-65
2021/12/15 08:28:29;;;;;;;27.23;14.35;;;;;;;;;;4951864;28;20082;-70
2021/12/15 08:30:59;;;;;;;25.83;14.85;;;;;;;;;;4946464;28;20514;-70
2021/12/15 08:33:26;;;;;;;26.70;14.85;;;;;;;;;;4953688;28;20129;-69
2021/12/15 08:35:58;;;;;;;33.47;16.30;;;;;;;;;;4953574;28;20130;-71
2021/12/15 08:38:26;;;;;;;30.70;15.88;;;;;;;;;;4948211;28;20058;-72
2021/12/15 08:40:56;;;;;;;25.73;14.32;;;;;;;;;;4954326;28;20134;-71
2021/12/15 08:43:23;;;;;;;25.17;13.15;;;;;;;;;;4953943;28;20051;-68
2021/12/15 08:45:58;;;;;;;24.10;13.63;;;;;;;;;;4954553;28;20071;-68
2021/12/15 08:48:25;;;;;;;25.25;12.73;;;;;;;;;;4952902;28;20302;-67
2021/12/15 08:50:52;;;;;;;23.17;12.88;;;;;;;;;;4943048;28;20051;-66
2021/12/15 08:53:18;;;;;;;22.80;13.35;;;;;;;;;;4934486;29;20051;-65
2021/12/15 08:55:47;;;;;;;21.17;12.68;;;;;;;;;;4935670;29;20052;-65
2021/12/15 08:58:16;;;;;;;21.27;13.13;;;;;;;;;;4946395;28;20051;-67
2021/12/15 09:00:47;;;;;;;20.27;12.52;;;;;;;;;;4955457;28;20051;-65
2021/12/15 09:03:15;;;;;;;18.38;11.20;;;;;;;;;;4954816;28;20047;-66
2021/12/15 09:05:42;;;;;;;17.58;10.68;;;;;;;;;;4955148;28;20087;-66
2021/12/15 09:08:09;;;;;;;18.42;11.50;;;;;;;;;;4954663;28;20192;-66
2021/12/15 09:10:37;;;;;;;19.92;11.60;;;;;;;;;;4954751;28;20059;-66
2021/12/15 09:13:04;;;;;;;20.75;12.55;;;;;;;;;;4954770;28;20217;-67
2021/12/15 09:15:31;;;;;;;19.77;12.10;;;;;;;;;;4954666;28;20051;-66
2021/12/15 09:17:58;;;;;;;18.85;11.38;;;;;;;;;;4954198;28;20106;-67
2021/12/15 09:20:27;;;;;;;16.13;11.15;;;;;;;;;;4954641;28;20059;-66
2021/12/15 09:22:55;;;;;;;15.07;10.65;;;;;;;;;;4954544;28;20103;-68
2021/12/15 09:25:22;;;;;;;14.38;9.80;;;;;;;;;;4954474;28;20087;-68
2021/12/15 09:27:48;;;;;;;14.68;10.05;;;;;;;;;;4954197;28;20043;-68
2021/12/15 09:30:18;;;;;;;11.95;8.38;;;;;;;;;;4954662;29;20094;-67
2021/12/15 09:32:45;;;;;;;13.23;8.40;;;;;;;;;;4954272;28;20055;-68
2021/12/15 09:35:14;;;;;;;13.82;8.93;;;;;;;;;;4954208;28;20557;-66
2021/12/15 09:37:40;;;;;;;12.68;8.13;;;;;;;;;;4953369;28;20566;-68
2021/12/15 09:40:10;;;;;;;13.32;8.43;;;;;;;;;;4954363;28;20079;-67
2021/12/15 09:42:39;;;;;;;12.75;7.88;;;;;;;;;;4954282;28;20094;-66
2021/12/15 09:46:15;;;;;;;13.38;8.27;;;;;;;;;;4954138;28;20106;-66
2021/12/15 10:04:32;;;;;;;13.07;9.27;;;;;;;;;;4924223;28;20134;-67
2021/12/15 10:18:39;;;;;;;11.88;8.43;;;;;;;;;;4953574;28;20102;-68
2021/12/15 10:21:06;;;;;;;11.98;7.50;;;;;;;;;;4953756;28;20058;-69
2021/12/15 10:23:40;;;;;;;10.90;7.88;;;;;;;;;;4953748;28;20454;-68
2021/12/15 10:26:07;;;;;;;11.90;8.25;;;;;;;;;;4953548;28;20090;-66
2021/12/15 10:28:35;;;;;;;9.80;7.70;;;;;;;;;;4953633;28;20051;-67
2021/12/15 10:31:05;;;;;;;12.75;8.07;;;;;;;;;;4953769;28;20051;-67
2021/12/15 10:34:00;;;;;;;10.73;7.93;;;;;;;;;;4953733;28;20047;-66
2021/12/15 10:36:31;;;;;;;11.40;8.02;;;;;;;;;;4951552;29;20047;-67
2021/12/15 10:39:05;;;;;;;10.10;7.53;;;;;;;;;;4953928;28;20051;-67
2021/12/15 10:41:41;;;;;;;8.63;6.60;;;;;;;;;;4968453;28;20051;-67
2021/12/15 10:44:12;;;;;;;8.98;6.30;;;;;;;;;;4953385;28;20109;-67
2021/12/15 10:46:49;;;;;;;9.50;7.53;;;;;;;;;;4953340;28;20052;-66
2021/12/15 10:49:24;;;;;;;7.88;6.15;;;;;;;;;;4953969;28;20078;-66
2021/12/15 10:51:54;;;;;;;7.93;5.95;;;;;;;;;;4957571;28;20074;-66
2021/12/15 10:54:30;;;;;;;9.10;6.63;;;;;;;;;;4957106;28;20122;-67
2021/12/15 10:57:14;;;;;;;7.25;5.30;;;;;;;;;;4956877;28;20102;-65
2021/12/15 10:59:43;;;;;;;8.13;6.10;;;;;;;;;;4957293;28;20055;-66
2021/12/15 11:02:32;;;;;;;9.45;6.35;;;;;;;;;;4946657;28;20138;-66
2021/12/15 11:05:05;;;;;;;6.13;5.18;;;;;;;;;;4952000;28;20043;-69
2021/12/15 11:07:37;;;;;;;5.55;4.95;;;;;;;;;;4955053;28;20047;-66
2021/12/15 11:10:05;;;;;;;6.05;4.53;;;;;;;;;;4945061;28;20061;-67
2021/12/15 11:12:42;;;;;;;4.28;3.88;;;;;;;;;;4953542;28;20141;-68
2021/12/15 11:15:11;;;;;;;4.35;3.90;;;;;;;;;;4955124;28;20047;-68
2021/12/15 11:17:41;;;;;;;4.43;3.72;;;;;;;;;;4951862;28;20094;-69
2021/12/15 11:20:13;;;;;;;4.57;4.18;;;;;;;;;;4954876;29;20056;-69
2021/12/15 11:22:48;;;;;;;4.80;3.92;;;;;;;;;;4955403;28;20059;-68
2021/12/15 11:25:37;;;;;;;4.03;3.42;;;;;;;;;;4955651;28;20051;-68
2021/12/15 11:28:06;;;;;;;4.80;3.63;;;;;;;;;;4954018;28;20078;-65
2021/12/15 11:30:59;;;;;;;3.75;3.30;;;;;;;;;;4955115;28;20098;-65
2021/12/15 11:33:27;;;;;;;3.80;3.40;;;;;;;;;;4952512;28;20047;-65
2021/12/15 11:36:06;;;;;;;4.28;3.88;;;;;;;;;;4955323;28;20106;-66
2021/12/15 11:38:38;;;;;;;3.97;3.58;;;;;;;;;;4954331;28;20113;-66
2021/12/15 11:41:07;;;;;;;6.75;4.35;;;;;;;;;;4954666;28;20154;-66
2021/12/15 11:43:41;;;;;;;3.63;3.13;;;;;;;;;;4954960;28;20485;-65
2021/12/15 11:46:26;;;;;;;3.45;3.15;;;;;;;;;;4955061;28;20047;-66
2021/12/15 11:49:05;;;;;;;4.40;3.97;;;;;;;;;;4953405;28;20454;-68
2021/12/15 11:51:47;;;;;;;4.03;3.63;;;;;;;;;;4950764;28;20051;-67
2021/12/15 11:54:19;;;;;;;6.50;4.43;;;;;;;;;;4952588;28;20498;-74
2021/12/15 11:56:48;;;;;;;5.30;4.68;;;;;;;;;;4969292;28;20078;-74
2021/12/15 11:59:21;;;;;;;4.40;3.95;;;;;;;;;;4954633;28;20047;-69
2021/12/15 12:02:01;;;;;;;4.18;3.50;;;;;;;;;;4954690;28;20047;-68
2021/12/15 12:04:51;;;;;;;4.43;3.60;;;;;;;;;;4954567;28;20134;-72
2021/12/15 12:07:23;;;;;;;3.92;3.50;;;;;;;;;;4954310;28;20058;-72
2021/12/15 12:09:57;;;;;;;4.30;3.90;;;;;;;;;;4954397;28;20139;-73
2021/12/15 12:12:29;;;;;;;4.00;3.47;;;;;;;;;;4954588;28;20125;-70
2021/12/15 12:14:56;;;;;;;4.65;4.18;;;;;;;;;;4954673;28;20051;-69
2021/12/15 12:17:22;;;;;;;6.03;4.15;;;;;;;;;;4954073;28;20055;-70
2021/12/15 12:20:10;;;;;;;3.63;3.25;;;;;;;;;;4954392;29;20403;-68
2021/12/15 12:22:38;;;;;;;3.10;2.80;;;;;;;;;;4952760;29;20059;-65
2021/12/15 12:25:08;;;;;;;3.55;3.25;;;;;;;;;;4954150;28;20051;-66
2021/12/15 12:27:35;;;;;;;5.05;3.90;;;;;;;;;;4954237;28;20075;-67
2021/12/15 12:30:08;;;;;;;5.43;4.05;;;;;;;;;;4952920;28;20118;-66
2021/12/15 12:32:35;;;;;;;3.42;3.13;;;;;;;;;;4954157;28;20094;-66
2021/12/15 12:35:03;;;;;;;3.20;2.90;;;;;;;;;;4954030;29;20047;-69
2021/12/15 12:37:29;;;;;;;2.70;2.50;;;;;;;;;;4953358;28;20047;-68
2021/12/15 12:40:04;;;;;;;3.13;2.83;;;;;;;;;;4952567;29;20464;-64
2021/12/15 12:42:36;;;;;;;3.85;3.25;;;;;;;;;;4951894;29;20110;-66
2021/12/15 12:45:18;;;;;;;3.13;2.83;;;;;;;;;;4951720;28;20071;-65
2021/12/15 12:48:10;;;;;;;3.75;3.42;;;;;;;;;;4949519;28;20051;-65
2021/12/15 12:57:53;;;;;;;4.28;3.35;;;;;;;;;;4949643;29;20059;-67
2021/12/15 12:59:28;;;;;;;4.70;2.80;;;;;;;;;;4949743;28;20461;-67
2021/12/15 13:01:56;;;;;;;2.47;2.28;;;;;;;;;;4950628;28;20094;-67
2021/12/15 13:04:39;;;;;;;3.60;3.03;;;;;;;;;;4951385;28;20070;-68
2021/12/15 13:07:06;;;;;;;3.47;2.90;;;;;;;;;;4963343;28;20563;-67
2021/12/15 13:09:45;;;;;;;2.08;1.98;;;;;;;;;;4949877;29;20047;-67
2021/12/15 13:12:25;;;;;;;3.15;2.85;;;;;;;;;;4948454;28;20122;-66
2021/12/15 13:14:55;;;;;;;2.85;2.65;;;;;;;;;;4951459;29;20054;-65
2021/12/15 13:17:26;;;;;;;3.80;2.70;;;;;;;;;;4951832;28;20499;-66
2021/12/15 13:19:53;;;;;;;3.63;3.10;;;;;;;;;;4953141;28;20047;-73
2021/12/15 13:22:38;;;;;;;4.00;3.60;;;;;;;;;;4953058;28;20055;-68
2021/12/15 13:31:00;;;;;;;2.90;2.50;;;;;;;;;;4950800;28;20055;-66
2021/12/15 13:33:29;;;;;;;3.10;2.72;;;;;;;;;;4951316;29;20490;-70
2021/12/15 13:36:11;;;;;;;2.55;2.35;;;;;;;;;;4948508;28;20042;-72
2021/12/15 13:38:44;;;;;;;2.83;2.63;;;;;;;;;;4952029;28;20055;-69
2021/12/15 13:44:24;;;;;;;3.47;3.13;;;;;;;;;;4952081;28;20043;-70
2021/12/15 13:46:57;;;;;;;2.60;2.38;;;;;;;;;;4952470;28;20557;-73
2021/12/15 13:49:32;;;;;;;2.63;2.40;;;;;;;;;;4951265;28;20051;-72
2021/12/15 13:52:10;;;;;;;2.90;2.35;;;;;;;;;;4952111;28;20058;-71
2021/12/15 13:54:37;;;;;;;3.10;2.80;;;;;;;;;;4951061;29;20134;-70
2021/12/15 13:57:09;;;;;;;3.08;2.80;;;;;;;;;;4952670;28;20098;-67
2021/12/15 13:59:52;;;;;;;2.83;2.63;;;;;;;;;;4946563;29;20046;-70
2021/12/15 14:02:35;;;;;;;2.90;2.47;;;;;;;;;;4961138;28;20051;-68
2021/12/15 14:05:21;;;;;;;3.53;2.95;;;;;;;;;;4949742;28;20047;-73
2021/12/15 14:07:53;;;;;;;2.80;2.60;;;;;;;;;;4951452;28;20498;-72
2021/12/15 14:10:21;;;;;;;2.97;2.78;;;;;;;;;;4959238;28;20439;-69
2021/12/15 14:12:52;;;;;;;3.03;2.72;;;;;;;;;;4943202;29;20044;-69
2021/12/15 14:15:25;;;;;;;3.38;3.08;;;;;;;;;;4950257;28;20344;-70
2021/12/15 14:18:17;;;;;;;3.22;2.92;;;;;;;;;;4950873;28;20055;-68
2021/12/15 14:20:57;;;;;;;3.20;2.90;;;;;;;;;;4951193;28;20574;-69
2021/12/15 14:23:45;;;;;;;5.05;3.25;;;;;;;;;;4951095;28;20055;-70
2021/12/15 14:26:31;;;;;;;4.60;3.67;;;;;;;;;;4952335;28;20142;-70
2021/12/15 14:29:01;;;;;;;3.30;3.03;;;;;;;;;;4951814;28;20047;-70
2021/12/15 14:31:31;;;;;;;3.97;3.20;;;;;;;;;;4951960;28;20454;-69
2021/12/15 14:34:05;;;;;;;3.63;3.33;;;;;;;;;;4948892;28;20047;-75
2021/12/15 14:36:38;;;;;;;4.00;3.55;;;;;;;;;;4941068;29;20050;-73
2021/12/15 14:39:11;;;;;;;4.30;3.90;;;;;;;;;;4950524;28;20110;-72
2021/12/15 14:41:53;;;;;;;4.07;3.67;;;;;;;;;;4949298;29;20430;-70
2021/12/15 14:44:25;;;;;;;4.18;3.78;;;;;;;;;;4950105;28;20051;-70
2021/12/15 14:46:56;;;;;;;7.20;4.40;;;;;;;;;;4951699;28;20077;-68
2021/12/15 14:49:32;;;;;;;4.30;3.80;;;;;;;;;;4947595;29;20106;-67
2021/12/15 14:52:02;;;;;;;4.57;4.18;;;;;;;;;;4947842;29;20051;-69
2021/12/15 14:54:30;;;;;;;4.35;3.95;;;;;;;;;;4949206;28;20054;-71
2021/12/15 14:57:01;;;;;;;4.68;4.22;;;;;;;;;;4945910;28;20094;-71
2021/12/15 14:59:36;;;;;;;5.15;4.65;;;;;;;;;;4947908;28;20047;-68
2021/12/15 15:02:08;;;;;;;5.35;4.85;;;;;;;;;;4946830;28;20555;-72
2021/12/15 15:04:36;;;;;;;7.00;4.28;;;;;;;;;;4949560;28;20052;-72
2021/12/15 15:07:06;;;;;;;4.78;4.28;;;;;;;;;;4951362;28;20090;-69
2021/12/15 15:09:39;;;;;;;4.70;4.25;;;;;;;;;;4952002;28;20055;-72
2021/12/15 15:12:15;;;;;;;5.25;4.75;;;;;;;;;;4952001;29;20051;-69
2021/12/15 15:15:04;;;;;;;5.53;4.72;;;;;;;;;;4954462;28;20083;-69
2021/12/15 15:17:54;;;;;;;5.80;4.32;;;;;;;;;;4951500;28;20427;-69
2021/12/15 15:20:24;;;;;;;4.60;4.20;;;;;;;;;;4951420;28;20051;-71
2021/12/15 15:22:53;;;;;;;4.57;4.18;;;;;;;;;;4967128;28;20094;-71
2021/12/15 15:25:26;;;;;;;4.32;3.90;;;;;;;;;;4952327;28;20167;-67
2021/12/15 15:27:56;;;;;;;5.45;4.63;;;;;;;;;;4950303;28;20098;-67
2021/12/15 15:30:26;;;;;;;4.93;4.47;;;;;;;;;;4950860;28;20562;-67
2021/12/15 15:32:55;;;;;;;4.85;4.35;;;;;;;;;;4951800;28;20051;-65
2021/12/15 15:35:30;;;;;;;5.57;4.88;;;;;;;;;;4952024;28;20094;-70
2021/12/15 15:38:00;;;;;;;5.53;4.90;;;;;;;;;;4955315;28;20514;-71
2021/12/15 15:40:29;;;;;;;6.10;5.43;;;;;;;;;;4953932;28;20133;-71
2021/12/15 15:43:04;;;;;;;6.25;5.35;;;;;;;;;;4955092;28;20573;-71
2021/12/15 15:45:40;;;;;;;5.53;5.03;;;;;;;;;;4951873;28;20054;-74
2021/12/15 15:48:10;;;;;;;6.65;5.10;;;;;;;;;;4952643;28;20113;-71
2021/12/15 15:50:39;;;;;;;5.82;5.32;;;;;;;;;;4954868;28;20051;-70
2021/12/15 15:53:07;;;;;;;5.78;5.10;;;;;;;;;;4954715;28;20458;-67
2021/12/15 15:55:34;;;;;;;7.65;5.30;;;;;;;;;;4954367;28;20051;-71
2021/12/15 15:58:06;;;;;;;5.78;4.93;;;;;;;;;;4954237;28;20047;-68
2021/12/15 16:00:36;;;;;;;6.68;5.57;;;;;;;;;;4954719;28;20055;-67
2021/12/15 16:03:06;;;;;;;6.05;5.45;;;;;;;;;;4953177;29;20093;-67
2021/12/15 16:05:33;;;;;;;5.95;5.22;;;;;;;;;;4952805;28;20049;-68
2021/12/15 16:08:00;;;;;;;6.10;5.47;;;;;;;;;;4954064;28;20126;-69
2021/12/15 16:10:29;;;;;;;6.88;5.40;;;;;;;;;;4954766;29;20055;-70
2021/12/15 16:13:00;;;;;;;5.03;4.53;;;;;;;;;;4954398;28;20043;-71
2021/12/15 16:15:35;;;;;;;7.85;5.93;;;;;;;;;;4954465;28;20117;-68
2021/12/15 16:18:02;;;;;;;7.03;5.85;;;;;;;;;;4954151;28;20039;-67
2021/12/15 16:20:59;;;;;;;6.18;5.57;;;;;;;;;;4954112;28;20059;-67
2021/12/15 16:23:21;;;;;;;6.10;5.60;;;;;;;;;;4953403;28;20047;-73
2021/12/15 16:25:48;;;;;;;7.32;5.65;;;;;;;;;;4951425;29;20051;-67